sensor_id;sensor_type;location;lat;lon;timestamp;P1;durP1;ratioP1;P2;durP2;ratioP2
10283;SDS011;5187;52.378;9.018;2022-10-16T00:01:03;6.40;;;2.10;;
10283;SDS011;5187;52.378;9.018;2022-10-16T00:03:32;3.97;;;2.40;;
10283;SDS011;5187;52.378;9.018;2022-10-16T00:06:01;2.87;;;2.57;;
10283;SDS011;5187;52.378;9.018;2022-10-16T00:08:29;2.40;;;2.20;;
10283;SDS011;5187;52.378;9.018;2022-10-16T00:10:59;2.73;;;2.53;;
10283;SDS011;5187;52.378;9.018;2022-10-16T00:13:28;3.00;;;2.70;;
10283;SDS011;5187;52.378;9.018;2022-10-16T00:15:57;3.87;;;2.87;;
10283;SDS011;5187;52.378;9.018;2022-10-16T00:18:27;3.63;;;2.80;;
10283;SDS011;5187;52.378;9.018;2022-10-16T00:21:01;3.70;;;2.90;;
10283;SDS011;5187;52.378;9.018;2022-10-16T00:23:29;4.47;;;2.83;;
10283;SDS011;5187;52.378;9.018;2022-10-16T00:25:59;5.93;;;3.20;;
10283;SDS011;5187;52.378;9.018;2022-10-16T00:28:27;4.20;;;2.90;;
10283;SDS011;5187;52.378;9.018;2022-10-16T00:30:56;3.43;;;2.90;;
10283;SDS011;5187;52.378;9.018;2022-10-16T00:33:25;6.80;;;2.90;;
10283;SDS011;5187;52.378;9.018;2022-10-16T00:35:55;3.73;;;2.87;;
10283;SDS011;5187;52.378;9.018;2022-10-16T00:38:25;4.50;;;2.90;;
10283;SDS011;5187;52.378;9.018;2022-10-16T00:40:54;5.80;;;3.10;;
10283;SDS011;5187;52.378;9.018;2022-10-16T00:43:33;5.30;;;3.23;;
10283;SDS011;5187;52.378;9.018;2022-10-16T00:46:02;3.40;;;3.10;;
10283;SDS011;5187;52.378;9.018;2022-10-16T00:48:31;4.57;;;2.93;;
10283;SDS011;5187;52.378;9.018;2022-10-16T00:51:01;5.37;;;3.30;;
10283;SDS011;5187;52.378;9.018;2022-10-16T00:53:30;4.67;;;3.20;;
10283;SDS011;5187;52.378;9.018;2022-10-16T00:55:58;4.07;;;3.30;;
10283;SDS011;5187;52.378;9.018;2022-10-16T00:58:27;4.50;;;3.20;;
10283;SDS011;5187;52.378;9.018;2022-10-16T01:00:55;6.13;;;3.80;;
10283;SDS011;5187;52.378;9.018;2022-10-16T01:03:25;6.27;;;3.43;;
10283;SDS011;5187;52.378;9.018;2022-10-16T01:05:58;5.50;;;3.60;;
10283;SDS011;5187;52.378;9.018;2022-10-16T01:08:30;5.73;;;4.10;;
10283;SDS011;5187;52.378;9.018;2022-10-16T01:11:04;5.70;;;3.80;;
10283;SDS011;5187;52.378;9.018;2022-10-16T01:13:35;6.33;;;3.93;;
10283;SDS011;5187;52.378;9.018;2022-10-16T01:16:07;5.73;;;4.37;;
10283;SDS011;5187;52.378;9.018;2022-10-16T01:18:41;7.27;;;3.70;;
10283;SDS011;5187;52.378;9.018;2022-10-16T01:21:12;6.27;;;3.90;;
10283;SDS011;5187;52.378;9.018;2022-10-16T01:23:46;6.07;;;4.17;;
10283;SDS011;5187;52.378;9.018;2022-10-16T01:26:20;4.17;;;3.57;;
10283;SDS011;5187;52.378;9.018;2022-10-16T01:28:54;6.07;;;4.10;;
10283;SDS011;5187;52.378;9.018;2022-10-16T01:31:30;5.67;;;4.17;;
10283;SDS011;5187;52.378;9.018;2022-10-16T01:34:02;6.30;;;4.27;;
10283;SDS011;5187;52.378;9.018;2022-10-16T01:36:34;7.43;;;4.10;;
10283;SDS011;5187;52.378;9.018;2022-10-16T01:39:03;4.77;;;3.93;;
10283;SDS011;5187;52.378;9.018;2022-10-16T01:41:33;5.27;;;4.10;;
10283;SDS011;5187;52.378;9.018;2022-10-16T01:44:04;4.10;;;3.67;;
10283;SDS011;5187;52.378;9.018;2022-10-16T01:46:35;4.53;;;3.90;;
10283;SDS011;5187;52.378;9.018;2022-10-16T01:49:04;5.30;;;3.80;;
10283;SDS011;5187;52.378;9.018;2022-10-16T01:51:34;5.27;;;3.70;;
10283;SDS011;5187;52.378;9.018;2022-10-16T01:54:03;5.70;;;4.00;;
10283;SDS011;5187;52.378;9.018;2022-10-16T01:56:33;7.13;;;4.30;;
10283;SDS011;5187;52.378;9.018;2022-10-16T01:59:03;6.00;;;4.27;;
10283;SDS011;5187;52.378;9.018;2022-10-16T02:01:35;7.47;;;4.30;;
10283;SDS011;5187;52.378;9.018;2022-10-16T02:04:07;6.07;;;4.37;;
10283;SDS011;5187;52.378;9.018;2022-10-16T02:06:36;5.30;;;3.97;;
10283;SDS011;5187;52.378;9.018;2022-10-16T02:09:05;6.47;;;4.50;;
10283;SDS011;5187;52.378;9.018;2022-10-16T02:11:33;6.77;;;4.33;;
10283;SDS011;5187;52.378;9.018;2022-10-16T02:14:02;7.40;;;4.70;;
10283;SDS011;5187;52.378;9.018;2022-10-16T02:16:32;7.70;;;4.97;;
10283;SDS011;5187;52.378;9.018;2022-10-16T02:19:02;9.07;;;5.17;;
10283;SDS011;5187;52.378;9.018;2022-10-16T02:21:33;8.27;;;5.70;;
10283;SDS011;5187;52.378;9.018;2022-10-16T02:24:06;8.53;;;5.57;;
10283;SDS011;5187;52.378;9.018;2022-10-16T02:26:37;6.20;;;5.20;;
10283;SDS011;5187;52.378;9.018;2022-10-16T02:29:09;7.83;;;5.20;;
10283;SDS011;5187;52.378;9.018;2022-10-16T02:31:39;6.57;;;5.50;;
10283;SDS011;5187;52.378;9.018;2022-10-16T02:34:10;6.23;;;4.70;;
10283;SDS011;5187;52.378;9.018;2022-10-16T02:36:40;7.23;;;5.23;;
10283;SDS011;5187;52.378;9.018;2022-10-16T02:39:08;6.90;;;5.23;;
10283;SDS011;5187;52.378;9.018;2022-10-16T02:41:38;8.67;;;4.73;;
10283;SDS011;5187;52.378;9.018;2022-10-16T02:44:06;7.70;;;5.13;;
10283;SDS011;5187;52.378;9.018;2022-10-16T02:46:35;7.27;;;5.27;;
10283;SDS011;5187;52.378;9.018;2022-10-16T02:49:03;8.67;;;4.73;;
10283;SDS011;5187;52.378;9.018;2022-10-16T02:51:33;5.97;;;4.70;;
10283;SDS011;5187;52.378;9.018;2022-10-16T02:54:02;5.60;;;4.70;;
10283;SDS011;5187;52.378;9.018;2022-10-16T02:56:30;5.30;;;4.77;;
10283;SDS011;5187;52.378;9.018;2022-10-16T02:58:59;7.40;;;4.90;;
10283;SDS011;5187;52.378;9.018;2022-10-16T03:01:27;5.87;;;5.00;;
10283;SDS011;5187;52.378;9.018;2022-10-16T03:03:56;6.57;;;5.10;;
10283;SDS011;5187;52.378;9.018;2022-10-16T03:06:24;6.43;;;5.27;;
10283;SDS011;5187;52.378;9.018;2022-10-16T03:08:54;5.43;;;4.87;;
10283;SDS011;5187;52.378;9.018;2022-10-16T03:11:23;7.10;;;5.40;;
10283;SDS011;5187;52.378;9.018;2022-10-16T03:13:52;6.60;;;5.47;;
10283;SDS011;5187;52.378;9.018;2022-10-16T03:16:21;7.77;;;5.53;;
10283;SDS011;5187;52.378;9.018;2022-10-16T03:18:49;9.27;;;5.77;;
10283;SDS011;5187;52.378;9.018;2022-10-16T03:21:17;10.47;;;5.03;;
10283;SDS011;5187;52.378;9.018;2022-10-16T03:23:46;9.93;;;5.77;;
10283;SDS011;5187;52.378;9.018;2022-10-16T03:26:16;6.20;;;5.00;;
10283;SDS011;5187;52.378;9.018;2022-10-16T03:28:44;9.77;;;5.70;;
10283;SDS011;5187;52.378;9.018;2022-10-16T03:31:13;7.03;;;5.50;;
10283;SDS011;5187;52.378;9.018;2022-10-16T03:33:41;6.90;;;6.20;;
10283;SDS011;5187;52.378;9.018;2022-10-16T03:36:10;9.90;;;5.80;;
10283;SDS011;5187;52.378;9.018;2022-10-16T03:38:38;7.67;;;5.70;;
10283;SDS011;5187;52.378;9.018;2022-10-16T03:41:07;9.87;;;6.60;;
10283;SDS011;5187;52.378;9.018;2022-10-16T03:43:37;7.63;;;5.90;;
10283;SDS011;5187;52.378;9.018;2022-10-16T03:46:05;9.37;;;6.20;;
10283;SDS011;5187;52.378;9.018;2022-10-16T03:48:33;8.60;;;6.60;;
10283;SDS011;5187;52.378;9.018;2022-10-16T03:51:02;6.77;;;6.00;;
10283;SDS011;5187;52.378;9.018;2022-10-16T03:53:30;7.63;;;5.90;;
10283;SDS011;5187;52.378;9.018;2022-10-16T03:55:59;8.03;;;5.50;;
10283;SDS011;5187;52.378;9.018;2022-10-16T03:58:27;8.50;;;5.63;;
10283;SDS011;5187;52.378;9.018;2022-10-16T04:00:57;8.23;;;5.30;;
10283;SDS011;5187;52.378;9.018;2022-10-16T04:03:26;6.97;;;5.30;;
10283;SDS011;5187;52.378;9.018;2022-10-16T04:05:54;8.90;;;5.07;;
10283;SDS011;5187;52.378;9.018;2022-10-16T04:08:23;9.90;;;5.37;;
10283;SDS011;5187;52.378;9.018;2022-10-16T04:10:51;6.57;;;5.03;;
10283;SDS011;5187;52.378;9.018;2022-10-16T04:13:20;8.40;;;5.53;;
10283;SDS011;5187;52.378;9.018;2022-10-16T04:15:48;6.77;;;5.80;;
10283;SDS011;5187;52.378;9.018;2022-10-16T04:18:18;7.73;;;5.30;;
10283;SDS011;5187;52.378;9.018;2022-10-16T04:20:46;8.40;;;5.40;;
10283;SDS011;5187;52.378;9.018;2022-10-16T04:23:15;7.33;;;5.30;;
10283;SDS011;5187;52.378;9.018;2022-10-16T04:25:43;7.30;;;5.33;;
10283;SDS011;5187;52.378;9.018;2022-10-16T04:28:12;5.90;;;5.10;;
10283;SDS011;5187;52.378;9.018;2022-10-16T04:30:40;7.30;;;5.60;;
10283;SDS011;5187;52.378;9.018;2022-10-16T04:33:09;7.80;;;5.07;;
10283;SDS011;5187;52.378;9.018;2022-10-16T04:35:40;7.80;;;5.27;;
10283;SDS011;5187;52.378;9.018;2022-10-16T04:38:09;8.10;;;5.40;;
10283;SDS011;5187;52.378;9.018;2022-10-16T04:40:37;6.90;;;5.13;;
10283;SDS011;5187;52.378;9.018;2022-10-16T04:43:06;10.23;;;5.67;;
10283;SDS011;5187;52.378;9.018;2022-10-16T04:45:34;8.13;;;5.43;;
10283;SDS011;5187;52.378;9.018;2022-10-16T04:48:03;5.47;;;4.97;;
10283;SDS011;5187;52.378;9.018;2022-10-16T04:50:31;9.80;;;5.93;;
10283;SDS011;5187;52.378;9.018;2022-10-16T04:53:01;7.13;;;5.77;;
10283;SDS011;5187;52.378;9.018;2022-10-16T04:55:29;8.40;;;5.40;;
10283;SDS011;5187;52.378;9.018;2022-10-16T04:57:58;6.67;;;5.43;;
10283;SDS011;5187;52.378;9.018;2022-10-16T05:00:26;5.93;;;5.10;;
10283;SDS011;5187;52.378;9.018;2022-10-16T05:02:55;6.03;;;5.37;;
10283;SDS011;5187;52.378;9.018;2022-10-16T05:05:41;11.27;;;4.97;;
10283;SDS011;5187;52.378;9.018;2022-10-16T05:08:11;6.93;;;4.83;;
10283;SDS011;5187;52.378;9.018;2022-10-16T05:10:40;6.67;;;4.97;;
10283;SDS011;5187;52.378;9.018;2022-10-16T05:13:09;5.20;;;4.70;;
10283;SDS011;5187;52.378;9.018;2022-10-16T05:15:38;6.23;;;4.63;;
10283;SDS011;5187;52.378;9.018;2022-10-16T05:18:06;7.33;;;4.57;;
10283;SDS011;5187;52.378;9.018;2022-10-16T05:20:35;4.87;;;4.37;;
10283;SDS011;5187;52.378;9.018;2022-10-16T05:23:03;6.70;;;5.27;;
10283;SDS011;5187;52.378;9.018;2022-10-16T05:25:33;5.97;;;4.63;;
10283;SDS011;5187;52.378;9.018;2022-10-16T05:28:02;7.07;;;4.50;;
10283;SDS011;5187;52.378;9.018;2022-10-16T05:30:30;5.80;;;4.93;;
10283;SDS011;5187;52.378;9.018;2022-10-16T05:32:59;5.43;;;4.80;;
10283;SDS011;5187;52.378;9.018;2022-10-16T05:35:27;4.83;;;4.33;;
10283;SDS011;5187;52.378;9.018;2022-10-16T05:37:55;7.43;;;4.70;;
10283;SDS011;5187;52.378;9.018;2022-10-16T05:40:24;6.67;;;4.97;;
10283;SDS011;5187;52.378;9.018;2022-10-16T05:42:55;5.23;;;4.67;;
10283;SDS011;5187;52.378;9.018;2022-10-16T05:45:24;7.83;;;4.93;;
10283;SDS011;5187;52.378;9.018;2022-10-16T05:47:53;5.53;;;5.03;;
10283;SDS011;5187;52.378;9.018;2022-10-16T05:50:22;6.23;;;4.97;;
10283;SDS011;5187;52.378;9.018;2022-10-16T05:52:51;6.60;;;5.10;;
10283;SDS011;5187;52.378;9.018;2022-10-16T05:55:20;8.43;;;5.60;;
10283;SDS011;5187;52.378;9.018;2022-10-16T05:57:49;6.63;;;5.40;;
10283;SDS011;5187;52.378;9.018;2022-10-16T06:00:19;5.07;;;4.53;;
10283;SDS011;5187;52.378;9.018;2022-10-16T06:02:48;6.00;;;4.40;;
10283;SDS011;5187;52.378;9.018;2022-10-16T06:05:17;5.10;;;4.63;;
10283;SDS011;5187;52.378;9.018;2022-10-16T06:07:45;4.23;;;3.80;;
10283;SDS011;5187;52.378;9.018;2022-10-16T06:10:14;3.47;;;3.13;;
10283;SDS011;5187;52.378;9.018;2022-10-16T06:12:43;4.07;;;3.17;;
10283;SDS011;5187;52.378;9.018;2022-10-16T06:15:12;4.80;;;3.20;;
10283;SDS011;5187;52.378;9.018;2022-10-16T06:17:42;5.33;;;3.23;;
10283;SDS011;5187;52.378;9.018;2022-10-16T06:20:13;3.10;;;2.80;;
10283;SDS011;5187;52.378;9.018;2022-10-16T06:22:42;2.97;;;2.47;;
10283;SDS011;5187;52.378;9.018;2022-10-16T06:25:11;3.30;;;2.40;;
10283;SDS011;5187;52.378;9.018;2022-10-16T06:27:40;3.20;;;2.57;;
10283;SDS011;5187;52.378;9.018;2022-10-16T06:30:09;3.17;;;2.37;;
10283;SDS011;5187;52.378;9.018;2022-10-16T06:32:38;3.87;;;2.40;;
10283;SDS011;5187;52.378;9.018;2022-10-16T06:42:21;4.90;;;2.40;;
10283;SDS011;5187;52.378;9.018;2022-10-16T06:45:07;2.17;;;1.90;;
10283;SDS011;5187;52.378;9.018;2022-10-16T06:48:41;3.13;;;2.30;;
10283;SDS011;5187;52.378;9.018;2022-10-16T07:12:59;2.80;;;1.30;;
10283;SDS011;5187;52.378;9.018;2022-10-16T07:15:43;3.23;;;1.50;;
10283;SDS011;5187;52.378;9.018;2022-10-16T07:18:23;1.43;;;1.33;;
10283;SDS011;5187;52.378;9.018;2022-10-16T07:24:57;1.10;;;1.00;;
10283;SDS011;5187;52.378;9.018;2022-10-16T07:31:38;2.53;;;1.43;;
10283;SDS011;5187;52.378;9.018;2022-10-16T07:34:19;1.90;;;1.27;;
10283;SDS011;5187;52.378;9.018;2022-10-16T07:36:49;2.07;;;1.30;;
10283;SDS011;5187;52.378;9.018;2022-10-16T07:39:34;2.03;;;1.20;;
10283;SDS011;5187;52.378;9.018;2022-10-16T07:42:15;6.00;;;1.47;;
10283;SDS011;5187;52.378;9.018;2022-10-16T07:44:47;1.63;;;1.30;;
10283;SDS011;5187;52.378;9.018;2022-10-16T07:47:23;2.27;;;1.20;;
10283;SDS011;5187;52.378;9.018;2022-10-16T07:49:54;2.23;;;1.40;;
10283;SDS011;5187;52.378;9.018;2022-10-16T07:52:48;1.67;;;1.13;;
10283;SDS011;5187;52.378;9.018;2022-10-16T07:55:19;1.70;;;1.30;;
10283;SDS011;5187;52.378;9.018;2022-10-16T07:58:26;2.57;;;1.20;;
10283;SDS011;5187;52.378;9.018;2022-10-16T08:01:07;0.97;;;0.90;;
10283;SDS011;5187;52.378;9.018;2022-10-16T08:03:37;1.33;;;1.10;;
10283;SDS011;5187;52.378;9.018;2022-10-16T08:06:06;4.07;;;1.17;;
10283;SDS011;5187;52.378;9.018;2022-10-16T08:08:34;3.20;;;1.30;;
10283;SDS011;5187;52.378;9.018;2022-10-16T08:11:03;1.77;;;1.07;;
10283;SDS011;5187;52.378;9.018;2022-10-16T08:13:32;2.22;;;1.30;;
10283;SDS011;5187;52.378;9.018;2022-10-16T08:16:00;2.50;;;1.20;;
10283;SDS011;5187;52.378;9.018;2022-10-16T08:18:34;1.30;;;1.20;;
10283;SDS011;5187;52.378;9.018;2022-10-16T08:21:05;2.30;;;1.40;;
10283;SDS011;5187;52.378;9.018;2022-10-16T08:23:34;1.63;;;1.30;;
10283;SDS011;5187;52.378;9.018;2022-10-16T08:26:03;3.47;;;1.20;;
10283;SDS011;5187;52.378;9.018;2022-10-16T08:28:31;1.43;;;1.33;;
10283;SDS011;5187;52.378;9.018;2022-10-16T08:31:08;2.75;;;1.38;;
10283;SDS011;5187;52.378;9.018;2022-10-16T08:33:37;1.30;;;1.20;;
10283;SDS011;5187;52.378;9.018;2022-10-16T08:36:07;3.05;;;1.70;;
10283;SDS011;5187;52.378;9.018;2022-10-16T08:38:37;1.87;;;1.20;;
10283;SDS011;5187;52.378;9.018;2022-10-16T08:44:00;1.98;;;1.40;;
10283;SDS011;5187;52.378;9.018;2022-10-16T08:46:37;2.33;;;1.52;;
10283;SDS011;5187;52.378;9.018;2022-10-16T08:49:16;2.55;;;1.30;;
10283;SDS011;5187;52.378;9.018;2022-10-16T08:51:46;4.72;;;1.30;;
10283;SDS011;5187;52.378;9.018;2022-10-16T08:54:26;1.92;;;1.23;;
10283;SDS011;5187;52.378;9.018;2022-10-16T08:56:56;1.75;;;1.23;;
10283;SDS011;5187;52.378;9.018;2022-10-16T08:59:28;2.55;;;1.70;;
10283;SDS011;5187;52.378;9.018;2022-10-16T09:01:57;2.20;;;1.40;;
10283;SDS011;5187;52.378;9.018;2022-10-16T09:04:43;1.55;;;1.40;;
10283;SDS011;5187;52.378;9.018;2022-10-16T09:07:23;2.42;;;1.30;;
10283;SDS011;5187;52.378;9.018;2022-10-16T09:09:55;2.63;;;1.40;;
10283;SDS011;5187;52.378;9.018;2022-10-16T09:12:28;2.03;;;1.30;;
10283;SDS011;5187;52.378;9.018;2022-10-16T09:15:02;3.75;;;1.65;;
10283;SDS011;5187;52.378;9.018;2022-10-16T09:17:36;3.08;;;1.55;;
10283;SDS011;5187;52.378;9.018;2022-10-16T09:20:14;2.05;;;1.30;;
10283;SDS011;5187;52.378;9.018;2022-10-16T09:22:47;1.33;;;1.23;;
10283;SDS011;5187;52.378;9.018;2022-10-16T09:25:17;1.83;;;1.30;;
10283;SDS011;5187;52.378;9.018;2022-10-16T09:27:48;3.55;;;1.30;;
10283;SDS011;5187;52.378;9.018;2022-10-16T09:30:18;1.42;;;1.25;;
10283;SDS011;5187;52.378;9.018;2022-10-16T09:32:47;1.17;;;1.08;;
10283;SDS011;5187;52.378;9.018;2022-10-16T09:35:16;2.28;;;1.45;;
10283;SDS011;5187;52.378;9.018;2022-10-16T09:37:47;2.42;;;1.33;;
10283;SDS011;5187;52.378;9.018;2022-10-16T09:40:25;1.42;;;1.30;;
10283;SDS011;5187;52.378;9.018;2022-10-16T09:42:56;2.10;;;1.40;;
10283;SDS011;5187;52.378;9.018;2022-10-16T09:45:25;4.32;;;1.70;;
10283;SDS011;5187;52.378;9.018;2022-10-16T09:47:54;4.05;;;1.58;;
10283;SDS011;5187;52.378;9.018;2022-10-16T09:50:24;2.20;;;1.30;;
10283;SDS011;5187;52.378;9.018;2022-10-16T09:53:03;1.50;;;1.40;;
10283;SDS011;5187;52.378;9.018;2022-10-16T09:55:33;4.20;;;1.58;;
10283;SDS011;5187;52.378;9.018;2022-10-16T09:58:02;4.03;;;1.60;;
10283;SDS011;5187;52.378;9.018;2022-10-16T10:00:30;3.90;;;1.60;;
10283;SDS011;5187;52.378;9.018;2022-10-16T10:02:59;2.70;;;1.80;;
10283;SDS011;5187;52.378;9.018;2022-10-16T10:05:28;2.35;;;1.67;;
10283;SDS011;5187;52.378;9.018;2022-10-16T10:07:57;2.95;;;1.40;;
10283;SDS011;5187;52.378;9.018;2022-10-16T10:10:27;2.80;;;1.60;;
10283;SDS011;5187;52.378;9.018;2022-10-16T10:12:57;2.97;;;1.70;;
10283;SDS011;5187;52.378;9.018;2022-10-16T10:15:27;1.40;;;1.30;;
10283;SDS011;5187;52.378;9.018;2022-10-16T10:17:56;2.45;;;1.20;;
10283;SDS011;5187;52.378;9.018;2022-10-16T10:20:26;2.15;;;1.40;;
10283;SDS011;5187;52.378;9.018;2022-10-16T10:22:55;3.65;;;1.52;;
10283;SDS011;5187;52.378;9.018;2022-10-16T10:25:30;3.40;;;1.40;;
10283;SDS011;5187;52.378;9.018;2022-10-16T10:28:06;2.83;;;1.50;;
10283;SDS011;5187;52.378;9.018;2022-10-16T10:30:38;3.55;;;1.50;;
10283;SDS011;5187;52.378;9.018;2022-10-16T10:33:12;2.10;;;1.42;;
10283;SDS011;5187;52.378;9.018;2022-10-16T10:35:43;2.28;;;1.27;;
10283;SDS011;5187;52.378;9.018;2022-10-16T10:38:18;1.95;;;1.20;;
10283;SDS011;5187;52.378;9.018;2022-10-16T10:40:50;3.03;;;1.50;;
10283;SDS011;5187;52.378;9.018;2022-10-16T10:43:25;3.72;;;1.30;;
10283;SDS011;5187;52.378;9.018;2022-10-16T10:45:58;1.50;;;1.23;;
10283;SDS011;5187;52.378;9.018;2022-10-16T10:48:34;1.58;;;1.25;;
10283;SDS011;5187;52.378;9.018;2022-10-16T10:51:08;2.03;;;1.10;;
10283;SDS011;5187;52.378;9.018;2022-10-16T10:53:41;2.42;;;0.95;;
10283;SDS011;5187;52.378;9.018;2022-10-16T10:56:18;4.22;;;1.30;;
10283;SDS011;5187;52.378;9.018;2022-10-16T11:01:40;4.60;;;1.40;;
10283;SDS011;5187;52.378;9.018;2022-10-16T11:04:27;2.22;;;1.20;;
10283;SDS011;5187;52.378;9.018;2022-10-16T11:06:59;2.97;;;1.30;;
10283;SDS011;5187;52.378;9.018;2022-10-16T11:09:30;3.63;;;1.40;;
10283;SDS011;5187;52.378;9.018;2022-10-16T11:12:01;3.17;;;1.30;;
10283;SDS011;5187;52.378;9.018;2022-10-16T11:14:31;3.17;;;1.33;;
10283;SDS011;5187;52.378;9.018;2022-10-16T11:17:05;4.15;;;1.33;;
10283;SDS011;5187;52.378;9.018;2022-10-16T11:19:37;1.75;;;1.15;;
10283;SDS011;5187;52.378;9.018;2022-10-16T11:22:09;3.03;;;1.20;;
10283;SDS011;5187;52.378;9.018;2022-10-16T11:24:41;3.50;;;1.20;;
10283;SDS011;5187;52.378;9.018;2022-10-16T11:27:12;4.20;;;1.60;;
10283;SDS011;5187;52.378;9.018;2022-10-16T11:29:45;3.30;;;1.33;;
10283;SDS011;5187;52.378;9.018;2022-10-16T11:32:18;2.67;;;1.40;;
10283;SDS011;5187;52.378;9.018;2022-10-16T11:34:49;3.47;;;1.38;;
10283;SDS011;5187;52.378;9.018;2022-10-16T11:37:19;2.00;;;1.40;;
10283;SDS011;5187;52.378;9.018;2022-10-16T11:39:50;2.50;;;1.40;;
10283;SDS011;5187;52.378;9.018;2022-10-16T11:42:21;3.78;;;1.63;;
10283;SDS011;5187;52.378;9.018;2022-10-16T11:44:52;3.50;;;1.48;;
10283;SDS011;5187;52.378;9.018;2022-10-16T11:47:26;2.13;;;1.60;;
10283;SDS011;5187;52.378;9.018;2022-10-16T11:50:18;2.38;;;1.38;;
10283;SDS011;5187;52.378;9.018;2022-10-16T11:52:51;4.07;;;1.33;;
10283;SDS011;5187;52.378;9.018;2022-10-16T11:55:23;2.42;;;1.40;;
10283;SDS011;5187;52.378;9.018;2022-10-16T11:57:53;3.03;;;1.30;;
10283;SDS011;5187;52.378;9.018;2022-10-16T12:00:23;3.45;;;1.40;;
10283;SDS011;5187;52.378;9.018;2022-10-16T12:02:56;3.05;;;1.60;;
10283;SDS011;5187;52.378;9.018;2022-10-16T12:05:28;3.17;;;1.20;;
10283;SDS011;5187;52.378;9.018;2022-10-16T12:08:02;2.80;;;1.40;;
10283;SDS011;5187;52.378;9.018;2022-10-16T12:10:32;3.25;;;1.30;;
10283;SDS011;5187;52.378;9.018;2022-10-16T12:13:04;2.40;;;1.20;;
10283;SDS011;5187;52.378;9.018;2022-10-16T12:15:33;2.35;;;1.20;;
10283;SDS011;5187;52.378;9.018;2022-10-16T12:18:23;2.28;;;1.20;;
10283;SDS011;5187;52.378;9.018;2022-10-16T12:20:55;2.20;;;1.17;;
10283;SDS011;5187;52.378;9.018;2022-10-16T12:23:27;2.67;;;1.30;;
10283;SDS011;5187;52.378;9.018;2022-10-16T12:25:56;2.65;;;1.40;;
10283;SDS011;5187;52.378;9.018;2022-10-16T12:28:26;2.55;;;1.30;;
10283;SDS011;5187;52.378;9.018;2022-10-16T12:30:55;2.28;;;1.30;;
10283;SDS011;5187;52.378;9.018;2022-10-16T12:33:26;2.45;;;1.30;;
10283;SDS011;5187;52.378;9.018;2022-10-16T12:35:55;2.50;;;1.20;;
10283;SDS011;5187;52.378;9.018;2022-10-16T12:38:25;1.42;;;1.10;;
10283;SDS011;5187;52.378;9.018;2022-10-16T12:40:55;2.30;;;1.50;;
10283;SDS011;5187;52.378;9.018;2022-10-16T12:43:27;1.48;;;1.20;;
10283;SDS011;5187;52.378;9.018;2022-10-16T12:46:00;1.83;;;1.00;;
10283;SDS011;5187;52.378;9.018;2022-10-16T12:48:31;3.00;;;1.08;;
10283;SDS011;5187;52.378;9.018;2022-10-16T12:51:22;3.17;;;1.25;;
10283;SDS011;5187;52.378;9.018;2022-10-16T12:54:01;2.75;;;1.15;;
10283;SDS011;5187;52.378;9.018;2022-10-16T12:56:35;2.47;;;1.08;;
10283;SDS011;5187;52.378;9.018;2022-10-16T12:59:08;3.38;;;1.23;;
10283;SDS011;5187;52.378;9.018;2022-10-16T13:01:41;2.38;;;1.20;;
10283;SDS011;5187;52.378;9.018;2022-10-16T13:04:23;1.60;;;1.15;;
10283;SDS011;5187;52.378;9.018;2022-10-16T13:06:58;1.83;;;1.08;;
10283;SDS011;5187;52.378;9.018;2022-10-16T13:09:33;1.52;;;0.98;;
10283;SDS011;5187;52.378;9.018;2022-10-16T13:12:25;1.75;;;1.02;;
10283;SDS011;5187;52.378;9.018;2022-10-16T13:15:03;2.65;;;1.20;;
10283;SDS011;5187;52.378;9.018;2022-10-16T13:17:38;4.43;;;1.25;;
10283;SDS011;5187;52.378;9.018;2022-10-16T13:20:15;3.10;;;1.33;;
10283;SDS011;5187;52.378;9.018;2022-10-16T13:22:48;2.08;;;1.20;;
10283;SDS011;5187;52.378;9.018;2022-10-16T13:25:25;1.23;;;1.00;;
10283;SDS011;5187;52.378;9.018;2022-10-16T13:27:56;2.35;;;1.13;;
10283;SDS011;5187;52.378;9.018;2022-10-16T13:30:33;2.95;;;1.10;;
10283;SDS011;5187;52.378;9.018;2022-10-16T13:33:04;1.50;;;1.20;;
10283;SDS011;5187;52.378;9.018;2022-10-16T13:35:36;3.70;;;1.42;;
10283;SDS011;5187;52.378;9.018;2022-10-16T13:38:12;3.92;;;1.60;;
10283;SDS011;5187;52.378;9.018;2022-10-16T13:40:48;2.58;;;1.35;;
10283;SDS011;5187;52.378;9.018;2022-10-16T13:43:17;2.13;;;1.35;;
10283;SDS011;5187;52.378;9.018;2022-10-16T13:45:52;2.83;;;1.45;;
10283;SDS011;5187;52.378;9.018;2022-10-16T13:48:21;2.20;;;1.20;;
10283;SDS011;5187;52.378;9.018;2022-10-16T13:51:01;5.30;;;1.70;;
10283;SDS011;5187;52.378;9.018;2022-10-16T13:53:30;2.08;;;1.20;;
10283;SDS011;5187;52.378;9.018;2022-10-16T13:56:02;2.63;;;1.20;;
10283;SDS011;5187;52.378;9.018;2022-10-16T13:58:31;2.53;;;1.42;;
10283;SDS011;5187;52.378;9.018;2022-10-16T14:01:01;3.60;;;1.50;;
10283;SDS011;5187;52.378;9.018;2022-10-16T14:03:32;2.17;;;1.27;;
10283;SDS011;5187;52.378;9.018;2022-10-16T14:06:04;1.60;;;1.20;;
10283;SDS011;5187;52.378;9.018;2022-10-16T14:08:36;2.97;;;1.38;;
10283;SDS011;5187;52.378;9.018;2022-10-16T14:11:04;1.40;;;1.30;;
10283;SDS011;5187;52.378;9.018;2022-10-16T14:13:34;3.28;;;1.42;;
10283;SDS011;5187;52.378;9.018;2022-10-16T14:16:06;2.33;;;1.13;;
10283;SDS011;5187;52.378;9.018;2022-10-16T14:18:35;1.58;;;1.00;;
10283;SDS011;5187;52.378;9.018;2022-10-16T14:21:07;3.70;;;1.27;;
10283;SDS011;5187;52.378;9.018;2022-10-16T14:23:40;1.90;;;0.95;;
10283;SDS011;5187;52.378;9.018;2022-10-16T14:26:13;2.90;;;1.00;;
10283;SDS011;5187;52.378;9.018;2022-10-16T14:28:42;2.75;;;1.42;;
10283;SDS011;5187;52.378;9.018;2022-10-16T14:31:25;2.03;;;0.98;;
10283;SDS011;5187;52.378;9.018;2022-10-16T14:33:54;1.50;;;1.25;;
10283;SDS011;5187;52.378;9.018;2022-10-16T14:36:24;1.10;;;1.00;;
10283;SDS011;5187;52.378;9.018;2022-10-16T14:38:58;3.47;;;1.00;;
10283;SDS011;5187;52.378;9.018;2022-10-16T14:41:28;1.63;;;1.10;;
10283;SDS011;5187;52.378;9.018;2022-10-16T14:44:00;2.83;;;1.30;;
10283;SDS011;5187;52.378;9.018;2022-10-16T14:46:30;1.70;;;0.95;;
10283;SDS011;5187;52.378;9.018;2022-10-16T14:49:00;2.30;;;1.08;;
10283;SDS011;5187;52.378;9.018;2022-10-16T14:51:32;3.78;;;1.10;;
10283;SDS011;5187;52.378;9.018;2022-10-16T14:54:00;2.17;;;1.20;;
10283;SDS011;5187;52.378;9.018;2022-10-16T14:56:29;2.47;;;1.02;;
10283;SDS011;5187;52.378;9.018;2022-10-16T14:58:58;1.88;;;1.00;;
10283;SDS011;5187;52.378;9.018;2022-10-16T15:01:30;2.47;;;1.20;;
10283;SDS011;5187;52.378;9.018;2022-10-16T15:04:01;2.25;;;1.20;;
10283;SDS011;5187;52.378;9.018;2022-10-16T15:06:31;1.90;;;1.10;;
10283;SDS011;5187;52.378;9.018;2022-10-16T15:09:00;1.33;;;1.00;;
10283;SDS011;5187;52.378;9.018;2022-10-16T15:11:29;2.63;;;1.00;;
10283;SDS011;5187;52.378;9.018;2022-10-16T15:13:59;2.15;;;1.20;;
10283;SDS011;5187;52.378;9.018;2022-10-16T15:16:28;4.65;;;1.13;;
10283;SDS011;5187;52.378;9.018;2022-10-16T15:18:58;2.38;;;1.00;;
10283;SDS011;5187;52.378;9.018;2022-10-16T15:21:28;1.60;;;0.95;;
10283;SDS011;5187;52.378;9.018;2022-10-16T15:23:59;2.83;;;1.10;;
10283;SDS011;5187;52.378;9.018;2022-10-16T15:26:28;3.72;;;1.17;;
10283;SDS011;5187;52.378;9.018;2022-10-16T15:29:11;1.60;;;1.00;;
10283;SDS011;5187;52.378;9.018;2022-10-16T15:31:39;3.60;;;1.00;;
10283;SDS011;5187;52.378;9.018;2022-10-16T15:34:09;2.85;;;1.10;;
10283;SDS011;5187;52.378;9.018;2022-10-16T15:36:39;2.47;;;1.00;;
10283;SDS011;5187;52.378;9.018;2022-10-16T15:39:11;2.10;;;1.08;;
10283;SDS011;5187;52.378;9.018;2022-10-16T15:41:41;2.35;;;1.10;;
10283;SDS011;5187;52.378;9.018;2022-10-16T15:44:09;3.00;;;1.20;;
10283;SDS011;5187;52.378;9.018;2022-10-16T15:46:38;1.38;;;1.00;;
10283;SDS011;5187;52.378;9.018;2022-10-16T15:49:07;1.63;;;1.20;;
10283;SDS011;5187;52.378;9.018;2022-10-16T15:51:37;1.45;;;1.15;;
10283;SDS011;5187;52.378;9.018;2022-10-16T15:54:06;2.53;;;1.20;;
10283;SDS011;5187;52.378;9.018;2022-10-16T15:56:36;4.30;;;1.45;;
10283;SDS011;5187;52.378;9.018;2022-10-16T15:59:04;1.65;;;1.20;;
10283;SDS011;5187;52.378;9.018;2022-10-16T16:01:33;2.88;;;1.30;;
10283;SDS011;5187;52.378;9.018;2022-10-16T16:04:02;1.50;;;1.40;;
10283;SDS011;5187;52.378;9.018;2022-10-16T16:06:45;3.72;;;1.40;;
10283;SDS011;5187;52.378;9.018;2022-10-16T16:09:16;2.75;;;1.60;;